Aérodrome :
LOGIN :

S'inscrire | Disclaimer

   EN    FR    IT 

 










Légende :    VFR   VFR Marginal   IFR   IFR Intensif   IFR Très Intensif
Visi : 
Plafond : 
>= 8 km
>= 3000ft
5 à 8 km
1000 à 3000 ft
1500m à 5 km
500 à 1000 ft
800 à 1500m
200 à 500 ft
< 800m
< 200 ft
Symboles :   Orages  Brouillard  Fortes neiges  Fortes précipitations  Vent > 20 kt
SIGMETs :   Divers  Orages  Givrage  Turbulence  Onde Orograph.  Cendres Volcan.






- Altitude de l'aérodrome : 375 ft
- Code IATA : MST


EHBK - Maastricht Aachen

DERNIER METAR :
  • 311925Z AUTO 23008KT 9999 NSC 17/14 Q1010 NOSIG

METARs EXPIRÉS :
  • 311855Z AUTO 23009KT 200V260 9999 NSC 17/13 Q1010 NOSIG
  • 311825Z AUTO 24007KT 210V290 9999 -RA NSC 17/14 Q1010 REDZRA NOSIG
  • 311755Z AUTO 25006KT 190V300 9999 NSC 19/13 Q1010 TEMPO 6000 SHRA SCT020CB
  • 311725Z AUTO 25008KT 200V280 9999 FEW027 19/13 Q1010 TEMPO 6000 SHRA SCT020CB
  • 311655Z AUTO 24009KT 210V280 9999 FEW028 19/13 Q1010 TEMPO 6000 SHRA SCT020CB

TAF COR TAF EHBK
Valide du 31 à 18h jusqu'au 02 à 00h UTC


311727Z 3118/0124 23007KT 9999 BKN025
PROB40
TEMPO 0105/0109 BKN006
BECMG 0111/0114 27010KT
TEMPO 0113/0120 27015G25KT 6000 SHRA SCT025CB
PROB30
TEMPO 0114/0118 4000 TSRA BKN020CB
BECMG 0118/0121 24005KT
BECMG 0121/0124 4000 BR BKN008



MET'MAP, la Météo Aéronautique d'un coup d'oeil ! - Copyright ORBIFLY Décembre 2007 - Disclaimer

ORBIFLY MET'MAP TEAM :

Programmation & Développement : Alexandra Zaïnal
Sur une idée originale de : Baudouin d'Aumeries
Assistance à la programmation : Marc-Olivier Méhu
Soutien technique & logistique : Manuel Goepfert

Contact : metmap@orbifly.com




SOURCES & CREDITS :

   NOAA